createdAt,value
2019-05-23T00:02:27.366Z,21.37
2019-05-23T00:05:16.367Z,21.67
2019-05-23T00:07:46.054Z,21.87
2019-05-23T00:10:16.976Z,21.45
2019-05-23T00:12:48.135Z,20.52
2019-05-23T00:15:27.858Z,19.58
2019-05-23T00:17:56.892Z,18.85
2019-05-23T00:20:25.965Z,18.18
2019-05-23T00:22:55.040Z,18.52
2019-05-23T00:25:24.854Z,19.51
2019-05-23T00:27:54.176Z,20.34
2019-05-23T00:30:34.787Z,20.88
2019-05-23T00:33:05.535Z,21.29
2019-05-23T00:35:35.012Z,21.64
2019-05-23T00:38:04.586Z,22.00
2019-05-23T00:40:33.942Z,21.64
2019-05-23T00:43:03.736Z,20.67
2019-05-23T00:45:33.055Z,19.76
2019-05-23T00:48:02.145Z,19.04
2019-05-23T00:50:31.880Z,18.43
2019-05-23T00:53:00.936Z,17.89
2019-05-23T00:55:30.450Z,18.31
2019-05-23T00:57:59.578Z,19.43
2019-05-23T01:00:30.251Z,20.22
2019-05-23T01:02:59.313Z,20.80
2019-05-23T01:05:29.783Z,21.25
2019-05-23T01:07:59.802Z,21.66
2019-05-23T01:10:29.176Z,22.09
2019-05-23T01:12:58.201Z,21.91
2019-05-23T01:15:27.771Z,21.08
2019-05-23T01:17:57.656Z,20.26
2019-05-23T01:20:31.478Z,19.54
2019-05-23T01:23:02.174Z,18.92
2019-05-23T01:25:31.581Z,18.38
2019-05-23T01:28:01.175Z,18.74
2019-05-23T01:30:44.020Z,19.79
2019-05-23T01:33:13.059Z,20.65
2019-05-23T01:35:42.735Z,21.20
2019-05-23T01:38:12.439Z,21.70
2019-05-23T01:40:41.644Z,22.04
2019-05-23T01:43:12.105Z,22.32
2019-05-23T01:45:42.608Z,22.04
2019-05-23T01:48:11.790Z,21.15
2019-05-23T01:50:41.281Z,20.20
2019-05-23T01:53:12.016Z,19.37
2019-05-23T01:55:42.060Z,18.64
2019-05-23T01:58:11.573Z,18.80
2019-05-23T02:00:40.600Z,19.68
2019-05-23T02:03:10.566Z,20.48
2019-05-23T02:05:40.326Z,21.12
2019-05-23T02:08:09.900Z,21.60
2019-05-23T02:10:39.282Z,22.04
2019-05-23T02:13:08.931Z,22.40
2019-05-23T02:15:39.036Z,22.18
2019-05-23T02:18:09.315Z,21.32
2019-05-23T02:20:38.329Z,20.54
2019-05-23T02:23:07.528Z,19.82
2019-05-23T02:25:36.823Z,19.26
2019-05-23T02:28:06.595Z,18.72
2019-05-23T02:30:36.467Z,19.07
2019-05-23T02:33:06.086Z,19.99
2019-05-23T02:35:35.610Z,20.64
2019-05-23T02:38:10.426Z,21.13
2019-05-23T02:40:47.113Z,21.54
2019-05-23T02:43:18.337Z,21.87
2019-05-23T02:45:54.575Z,22.09
2019-05-23T02:48:31.373Z,22.26
2019-05-23T02:51:21.919Z,21.90
2019-05-23T02:53:53.857Z,21.01
2019-05-23T02:56:22.871Z,20.16
2019-05-23T02:59:28.914Z,19.47
2019-05-23T03:02:37.553Z,18.79
2019-05-23T03:05:08.982Z,18.14
2019-05-23T03:07:38.860Z,18.66
2019-05-23T03:10:12.320Z,19.78
2019-05-23T03:12:43.684Z,20.55
2019-05-23T03:15:13.376Z,21.05
2019-05-23T03:17:43.309Z,21.58
2019-05-23T03:20:13.528Z,22.03
2019-05-23T03:22:47.053Z,22.43
2019-05-23T03:25:36.847Z,22.73
2019-05-23T03:28:07.591Z,22.14
2019-05-23T03:30:41.605Z,21.25
2019-05-23T03:33:12.337Z,20.47
2019-05-23T03:35:49.116Z,19.79
2019-05-23T03:38:18.137Z,19.27
2019-05-23T03:40:47.532Z,19.54
2019-05-23T03:43:16.819Z,20.51
2019-05-23T03:45:52.946Z,21.26
2019-05-23T03:48:23.784Z,21.78
2019-05-23T03:50:55.065Z,22.14
2019-05-23T03:53:26.592Z,22.43
2019-05-23T03:55:57.758Z,22.15
2019-05-23T03:58:27.102Z,21.35
2019-05-23T04:00:57.585Z,20.58
2019-05-23T04:03:27.303Z,20.02
2019-05-23T04:05:57.071Z,19.48
2019-05-23T04:08:27.024Z,18.96
2019-05-23T04:10:56.618Z,19.43
2019-05-23T04:13:25.783Z,20.39
2019-05-23T04:15:55.078Z,21.23
2019-05-23T04:18:24.201Z,21.78
2019-05-23T04:20:53.602Z,22.26
2019-05-23T04:23:22.704Z,22.64
2019-05-23T04:25:52.031Z,22.98
2019-05-23T04:28:21.287Z,22.60
2019-05-23T04:30:50.538Z,21.82
2019-05-23T04:33:19.654Z,21.06
2019-05-23T04:35:48.849Z,20.44
2019-05-23T04:38:18.150Z,19.85
2019-05-23T04:40:47.286Z,20.15
2019-05-23T04:43:16.478Z,21.09
2019-05-23T04:45:46.149Z,21.60
2019-05-23T04:48:15.346Z,22.04
2019-05-23T04:50:45.735Z,22.49
2019-05-23T04:53:15.010Z,22.76
2019-05-23T04:55:45.831Z,22.32
2019-05-23T04:58:15.071Z,21.54
2019-05-23T05:00:44.430Z,20.75
2019-05-23T05:03:17.558Z,20.10
2019-05-23T05:05:44.387Z,20.39
2019-05-23T05:08:13.447Z,21.29
2019-05-23T05:10:42.973Z,21.97
2019-05-23T05:13:12.235Z,22.59
2019-05-23T05:15:41.646Z,23.10
2019-05-23T05:18:11.287Z,23.11
2019-05-23T05:20:40.485Z,22.35
2019-05-23T05:23:09.579Z,21.56
2019-05-23T05:25:38.636Z,20.92
2019-05-23T05:28:07.797Z,20.47
2019-05-23T05:30:37.188Z,20.13
2019-05-23T05:33:06.207Z,20.34
2019-05-23T05:35:35.765Z,21.35
2019-05-23T05:38:04.973Z,22.32
2019-05-23T05:40:33.974Z,22.98
2019-05-23T05:43:03.150Z,23.20
2019-05-23T05:45:32.847Z,22.95
2019-05-23T05:48:02.226Z,22.79
2019-05-23T05:50:31.428Z,22.60
2019-05-23T05:53:00.550Z,22.56
2019-05-23T05:55:29.540Z,22.40
2019-05-23T05:57:58.792Z,22.22
2019-05-23T06:00:27.633Z,22.22
2019-05-23T06:03:04.148Z,22.22
2019-05-23T06:05:41.060Z,22.26
2019-05-23T06:08:11.831Z,22.15
2019-05-23T06:10:41.129Z,22.03
2019-05-23T06:13:10.712Z,22.09
2019-05-23T06:15:40.419Z,22.19
2019-05-23T06:18:09.487Z,22.51
2019-05-23T06:20:41.123Z,22.70
2019-05-23T06:23:11.218Z,22.84
2019-05-23T06:25:40.494Z,23.01
2019-05-23T06:28:10.487Z,23.11
2019-05-23T06:30:39.622Z,23.05
2019-05-23T06:33:22.805Z,23.01
2019-05-23T06:35:39.467Z,23.03
2019-05-23T06:38:08.827Z,23.03
2019-05-23T06:40:37.923Z,23.07
2019-05-23T06:43:07.067Z,23.05
2019-05-23T06:45:36.446Z,23.09
2019-05-23T06:48:05.842Z,23.00
2019-05-23T06:50:35.090Z,23.04
2019-05-23T06:53:05.076Z,22.98
2019-05-23T06:55:34.197Z,23.15
2019-05-23T06:58:03.657Z,23.45
2019-05-23T07:00:32.935Z,23.66
2019-05-23T07:03:02.470Z,23.62
2019-05-23T07:05:36.949Z,23.61
2019-05-23T07:08:06.861Z,23.44
2019-05-23T07:10:36.073Z,23.22
2019-05-23T07:13:05.089Z,23.01
2019-05-23T07:15:34.409Z,22.89
2019-05-23T07:18:03.456Z,22.93
2019-05-23T07:20:32.547Z,22.98
2019-05-23T07:23:01.806Z,22.97
2019-05-23T07:25:31.265Z,22.86
2019-05-23T07:28:00.701Z,22.91
2019-05-23T07:30:29.818Z,22.67
2019-05-23T07:32:59.458Z,22.74
2019-05-23T07:35:28.647Z,23.01
2019-05-23T07:37:57.898Z,23.41
2019-05-23T07:40:28.089Z,23.66
2019-05-23T07:42:57.680Z,23.66
2019-05-23T07:45:34.038Z,23.72
2019-05-23T07:48:03.349Z,23.63
2019-05-23T07:50:32.894Z,23.48
2019-05-23T07:53:02.479Z,23.41
2019-05-23T07:55:31.302Z,23.34
2019-05-23T07:58:00.657Z,23.25
2019-05-23T08:00:31.348Z,23.22
2019-05-23T08:03:01.280Z,23.28
2019-05-23T08:05:30.388Z,23.35
2019-05-23T08:07:59.670Z,23.37
2019-05-23T08:10:33.522Z,23.31
2019-05-23T08:12:59.878Z,23.22
2019-05-23T08:15:29.106Z,23.07
2019-05-23T08:17:58.366Z,23.00
2019-05-23T08:20:28.074Z,23.01
2019-05-23T08:22:57.093Z,22.90
2019-05-23T08:25:26.087Z,22.84
2019-05-23T08:27:55.125Z,22.84
2019-05-23T08:30:24.712Z,22.93
2019-05-23T08:32:53.739Z,23.09
2019-05-23T08:35:23.045Z,23.10
2019-05-23T08:37:52.319Z,23.04
2019-05-23T08:40:22.390Z,23.05
2019-05-23T08:42:51.864Z,22.94
2019-05-23T08:45:21.262Z,22.95
2019-05-23T08:47:50.568Z,23.03
2019-05-23T08:50:20.349Z,23.10
2019-05-23T08:52:49.669Z,23.20
2019-05-23T08:55:25.737Z,23.15
2019-05-23T08:57:55.251Z,23.07
2019-05-23T09:00:26.436Z,23.03
2019-05-23T09:02:58.447Z,23.15
2019-05-23T09:05:28.302Z,23.30
2019-05-23T09:07:57.830Z,23.32
2019-05-23T09:10:27.360Z,23.32
2019-05-23T09:12:56.614Z,23.31
2019-05-23T09:15:25.627Z,23.34
2019-05-23T09:17:55.032Z,23.38
2019-05-23T09:20:24.061Z,23.40
2019-05-23T09:22:53.126Z,23.52
2019-05-23T09:25:22.160Z,23.65
2019-05-23T09:27:51.751Z,23.72
2019-05-23T09:30:21.279Z,23.70
2019-05-23T09:32:50.827Z,23.76
2019-05-23T09:35:22.315Z,23.93
2019-05-23T09:37:51.686Z,23.95
2019-05-23T09:40:20.997Z,23.99
2019-05-23T09:42:50.069Z,24.20
2019-05-23T09:45:19.588Z,24.30
2019-05-23T09:47:51.169Z,24.44
2019-05-23T09:50:21.143Z,24.62
2019-05-23T09:52:50.192Z,24.98
2019-05-23T09:55:20.022Z,25.30
2019-05-23T09:57:49.075Z,25.48
2019-05-23T10:00:19.748Z,25.60
2019-05-23T10:02:48.783Z,25.65
2019-05-23T10:05:17.799Z,25.67
2019-05-23T10:07:46.832Z,25.70
2019-05-23T10:10:17.861Z,25.53
2019-05-23T10:12:47.054Z,25.50
2019-05-23T10:15:18.305Z,25.38
2019-05-23T10:17:47.419Z,25.32
2019-05-23T10:20:17.328Z,25.03
2019-05-23T10:22:46.526Z,24.81
2019-05-23T10:25:15.560Z,24.58
2019-05-23T10:27:44.562Z,24.16
2019-05-23T10:30:15.822Z,23.95
2019-05-23T10:32:44.913Z,23.90
2019-05-23T10:35:14.616Z,23.88
2019-05-23T10:37:43.742Z,23.85
2019-05-23T10:40:12.787Z,23.86
2019-05-23T10:42:42.804Z,23.90
2019-05-23T10:45:11.880Z,23.76
2019-05-23T10:47:40.995Z,23.70
2019-05-23T10:50:10.516Z,23.76
2019-05-23T10:52:39.577Z,23.90
2019-05-23T10:55:10.309Z,24.06
2019-05-23T10:57:39.329Z,24.20
2019-05-23T11:00:10.236Z,24.14
2019-05-23T11:02:39.942Z,23.97
2019-05-23T11:05:13.572Z,23.90
2019-05-23T11:07:42.104Z,23.80
2019-05-23T11:10:11.888Z,23.72
2019-05-23T11:12:41.907Z,23.63
2019-05-23T11:15:11.069Z,23.63
2019-05-23T11:17:40.435Z,23.80
2019-05-23T11:20:11.809Z,24.01
2019-05-23T11:22:40.953Z,24.03
2019-05-23T11:25:13.459Z,24.21
2019-05-23T11:27:42.998Z,24.19
2019-05-23T11:30:14.175Z,24.25
2019-05-23T11:32:43.250Z,24.30
2019-05-23T11:35:12.415Z,24.37
2019-05-23T11:37:42.207Z,24.44
2019-05-23T11:40:11.303Z,24.31
2019-05-23T11:42:40.351Z,24.03
2019-05-23T11:45:09.714Z,23.68
2019-05-23T11:47:38.761Z,23.32
2019-05-23T11:50:08.211Z,23.09
2019-05-23T11:52:37.727Z,22.77
2019-05-23T11:55:07.727Z,22.56
2019-05-23T11:57:38.477Z,22.36
2019-05-23T12:00:10.086Z,22.25
2019-05-23T12:02:41.092Z,22.04
2019-05-23T12:05:12.014Z,21.87
2019-05-23T12:07:41.226Z,21.74
2019-05-23T12:10:10.721Z,21.60
2019-05-23T12:12:39.759Z,21.52
2019-05-23T12:15:12.432Z,21.32
2019-05-23T12:17:41.917Z,21.20
2019-05-23T12:20:11.484Z,21.20
2019-05-23T12:22:41.332Z,22.01
2019-05-23T12:25:22.034Z,23.37
2019-05-23T12:27:42.834Z,24.40
2019-05-23T12:30:14.295Z,25.06
2019-05-23T12:32:43.403Z,25.32
2019-05-23T12:35:12.553Z,25.06
2019-05-23T12:37:41.671Z,24.23
2019-05-23T12:40:12.661Z,23.52
2019-05-23T12:42:41.700Z,22.83
2019-05-23T12:45:10.923Z,22.31
2019-05-23T12:47:56.629Z,22.64
2019-05-23T12:50:28.442Z,23.76
2019-05-23T12:52:57.529Z,24.43
2019-05-23T12:55:26.639Z,25.10
2019-05-23T12:57:55.765Z,25.65
2019-05-23T13:00:39.621Z,26.12
2019-05-23T13:03:09.654Z,25.87
2019-05-23T13:05:39.091Z,25.10
2019-05-23T13:08:08.353Z,24.46
2019-05-23T13:10:37.465Z,23.93
2019-05-23T13:13:06.582Z,23.65
2019-05-23T13:15:36.351Z,23.37
2019-05-23T13:18:05.557Z,23.20
2019-05-23T13:20:34.882Z,23.11
2019-05-23T13:23:03.961Z,23.01
2019-05-23T13:25:33.246Z,23.66
2019-05-23T13:28:02.297Z,24.89
2019-05-23T13:30:31.661Z,25.54
2019-05-23T13:33:03.531Z,24.92
2019-05-23T13:35:32.267Z,23.95
2019-05-23T13:38:01.313Z,22.97
2019-05-23T13:40:31.131Z,22.32
2019-05-23T13:43:00.287Z,21.74
2019-05-23T13:45:29.442Z,21.94
2019-05-23T13:47:58.648Z,22.87
2019-05-23T13:50:28.515Z,23.59
2019-05-23T13:52:57.615Z,23.96
2019-05-23T13:55:26.820Z,24.36
2019-05-23T13:57:55.845Z,23.55
2019-05-23T14:00:25.104Z,22.63
2019-05-23T14:02:54.843Z,21.87
2019-05-23T14:05:23.959Z,21.94
2019-05-23T14:08:08.732Z,22.52
2019-05-23T14:10:24.320Z,22.98
2019-05-23T14:12:55.479Z,23.17
2019-05-23T14:15:32.293Z,23.65
2019-05-23T14:18:01.428Z,24.03
2019-05-23T14:20:30.446Z,24.25
2019-05-23T14:23:01.147Z,24.30
2019-05-23T14:25:30.533Z,23.28
2019-05-23T14:28:01.208Z,22.24
2019-05-23T14:30:35.885Z,21.39
2019-05-23T14:33:13.918Z,21.88
2019-05-23T14:35:44.592Z,22.52
2019-05-23T14:38:29.644Z,22.79
2019-05-23T14:40:46.693Z,23.11
2019-05-23T14:43:21.690Z,23.35
2019-05-23T14:45:56.502Z,23.61
2019-05-23T14:48:25.322Z,23.51
2019-05-23T14:51:08.126Z,23.40
2019-05-23T14:53:38.867Z,23.63
2019-05-23T14:56:08.186Z,23.51
2019-05-23T14:58:37.516Z,23.68
2019-05-23T15:01:07.390Z,23.59
2019-05-23T15:03:38.501Z,23.55
2019-05-23T15:06:07.827Z,23.48
2019-05-23T15:08:50.491Z,23.17
2019-05-23T15:11:08.013Z,23.27
2019-05-23T15:13:37.060Z,23.20
2019-05-23T15:16:06.269Z,23.31
2019-05-23T15:18:35.299Z,23.32
2019-05-23T15:21:04.326Z,23.42
2019-05-23T15:23:33.502Z,23.78
2019-05-23T15:28:36.910Z,23.35
2019-05-23T15:31:06.381Z,22.45
2019-05-23T15:33:35.589Z,21.66
2019-05-23T15:36:05.008Z,21.03
2019-05-23T15:38:39.248Z,21.67
2019-05-23T15:41:06.082Z,22.36
2019-05-23T15:43:35.322Z,23.00
2019-05-23T15:46:04.509Z,23.17
2019-05-23T15:48:33.811Z,23.34
2019-05-23T15:51:03.893Z,23.35
2019-05-23T15:53:43.636Z,22.70
2019-05-23T15:56:30.381Z,21.63
2019-05-23T15:59:16.611Z,20.72
2019-05-23T16:01:50.243Z,20.99
2019-05-23T16:04:23.329Z,21.45
2019-05-23T16:06:52.640Z,22.01
2019-05-23T16:09:29.403Z,22.51
2019-05-23T16:11:53.209Z,22.55
2019-05-23T16:14:23.675Z,22.52
2019-05-23T16:16:56.431Z,22.56
2019-05-23T16:19:24.335Z,22.73
2019-05-23T16:21:53.503Z,22.64
2019-05-23T16:24:22.579Z,22.56
2019-05-23T16:26:51.974Z,22.91
2019-05-23T16:29:21.992Z,23.13
2019-05-23T16:31:51.159Z,22.72
2019-05-23T16:34:20.210Z,21.84
2019-05-23T16:36:49.448Z,20.98
2019-05-23T16:39:19.041Z,21.15
2019-05-23T16:41:48.064Z,21.97
2019-05-23T16:44:17.181Z,22.49
2019-05-23T16:46:46.216Z,22.95
2019-05-23T16:49:15.328Z,22.98
2019-05-23T16:51:45.141Z,23.05
2019-05-23T16:54:15.879Z,22.64
2019-05-23T16:56:46.567Z,21.82
2019-05-23T16:59:20.997Z,20.89
2019-05-23T17:02:07.391Z,20.87
2019-05-23T17:04:47.402Z,21.47
2019-05-23T17:07:34.367Z,21.84
2019-05-23T17:10:11.184Z,22.05
2019-05-23T17:12:44.495Z,22.25
2019-05-23T17:15:27.502Z,22.14
2019-05-23T17:18:03.853Z,22.34
2019-05-23T17:20:50.772Z,22.28
2019-05-23T17:23:22.342Z,22.47
2019-05-23T17:25:53.948Z,22.97
2019-05-23T17:28:37.117Z,22.74
2019-05-23T17:31:23.778Z,21.64
2019-05-23T17:33:52.900Z,20.47
2019-05-23T17:36:22.614Z,20.44
2019-05-23T17:38:51.676Z,21.06
2019-05-23T17:41:20.716Z,21.36
2019-05-23T17:43:49.765Z,21.81
2019-05-23T17:46:18.791Z,22.38
2019-05-23T17:48:48.009Z,22.70
2019-05-23T17:51:17.028Z,23.10
2019-05-23T17:53:46.055Z,22.80
2019-05-23T17:56:15.380Z,21.87
2019-05-23T17:58:44.535Z,20.97
2019-05-23T18:01:13.965Z,20.23
2019-05-23T18:03:43.627Z,20.39
2019-05-23T18:06:13.516Z,21.05
2019-05-23T18:08:42.652Z,21.58
2019-05-23T18:11:11.961Z,22.12
2019-05-23T18:13:41.073Z,22.47
2019-05-23T18:16:10.112Z,22.82
2019-05-23T18:18:39.142Z,23.05
2019-05-23T18:21:09.470Z,22.52
2019-05-23T18:23:38.800Z,21.64
2019-05-23T18:26:08.047Z,20.80
2019-05-23T18:28:37.457Z,20.05
2019-05-23T18:31:14.537Z,20.20
2019-05-23T18:33:44.779Z,21.18
2019-05-23T18:36:14.359Z,21.93
2019-05-23T18:38:43.403Z,22.32
2019-05-23T18:41:12.540Z,22.46
2019-05-23T18:43:41.983Z,22.56
2019-05-23T18:46:15.522Z,21.98
2019-05-23T18:48:44.725Z,21.05
2019-05-23T18:51:13.757Z,20.13
2019-05-23T18:53:42.924Z,20.40
2019-05-23T18:56:12.198Z,21.03
2019-05-23T18:58:41.604Z,21.54
2019-05-23T19:01:17.863Z,21.91
2019-05-23T19:03:46.985Z,22.22
2019-05-23T19:06:16.094Z,22.53
2019-05-23T19:08:45.236Z,22.08
2019-05-23T19:11:20.881Z,21.20
2019-05-23T19:13:45.286Z,20.31
2019-05-23T19:16:14.323Z,20.33
2019-05-23T19:18:43.500Z,20.81
2019-05-23T19:21:13.217Z,21.54
2019-05-23T19:23:42.421Z,21.70
2019-05-23T19:26:12.730Z,21.58
2019-05-23T19:28:43.233Z,21.67
2019-05-23T19:31:13.183Z,21.93
2019-05-23T19:33:42.461Z,22.32
2019-05-23T19:36:12.045Z,22.60
2019-05-23T19:38:41.297Z,22.42
2019-05-23T19:41:10.871Z,21.63
2019-05-23T19:43:40.277Z,20.60
2019-05-23T19:46:09.373Z,19.81
2019-05-23T19:48:39.846Z,20.15
2019-05-23T19:51:09.697Z,20.98
2019-05-23T19:53:38.924Z,21.54
2019-05-23T19:56:08.599Z,21.88
2019-05-23T19:58:38.045Z,22.07
2019-05-23T20:01:07.427Z,22.51
2019-05-23T20:03:36.751Z,22.39
2019-05-23T20:06:06.699Z,21.90
2019-05-23T20:08:35.814Z,20.72
2019-05-23T20:11:05.206Z,19.88
2019-05-23T20:13:35.856Z,19.96
2019-05-23T20:16:05.470Z,20.91
2019-05-23T20:18:34.893Z,21.64
2019-05-23T20:21:04.434Z,21.91
2019-05-23T20:23:33.544Z,22.32
2019-05-23T20:26:07.485Z,21.90
2019-05-23T20:28:34.816Z,20.87
2019-05-23T20:31:04.208Z,19.92
2019-05-23T20:33:33.304Z,20.06
2019-05-23T20:36:04.038Z,20.43
2019-05-23T20:38:33.364Z,20.62
2019-05-23T20:41:02.483Z,21.18
2019-05-23T20:43:31.526Z,21.16
2019-05-23T20:46:00.646Z,21.30
2019-05-23T20:48:29.965Z,21.85
2019-05-23T20:50:59.015Z,21.94
2019-05-23T20:53:28.037Z,21.73
2019-05-23T20:55:57.084Z,20.91
2019-05-23T20:58:26.183Z,19.96
2019-05-23T21:00:57.040Z,19.89
2019-05-23T21:03:27.456Z,20.46
2019-05-23T21:05:56.653Z,21.13
2019-05-23T21:08:25.829Z,21.40
2019-05-23T21:10:55.078Z,21.80
2019-05-23T21:13:24.120Z,21.90
2019-05-23T21:15:53.237Z,21.49
2019-05-23T21:18:22.361Z,20.37
2019-05-23T21:20:51.381Z,19.58
2019-05-23T21:23:20.637Z,19.68
2019-05-23T21:25:51.382Z,20.44
2019-05-23T21:28:20.421Z,20.92
2019-05-23T21:30:49.690Z,21.39
2019-05-23T21:33:18.811Z,21.18
2019-05-23T21:35:47.939Z,21.09
2019-05-23T21:38:17.016Z,21.05
2019-05-23T21:40:46.356Z,21.36
2019-05-23T21:43:15.406Z,21.60
2019-05-23T21:45:44.505Z,20.75
2019-05-23T21:48:13.681Z,19.78
2019-05-23T21:50:42.803Z,18.93
2019-05-23T21:53:11.975Z,19.38
2019-05-23T21:55:43.238Z,20.19
2019-05-23T21:58:14.065Z,20.46
2019-05-23T22:01:05.728Z,20.54
2019-05-23T22:03:41.038Z,20.52
2019-05-23T22:06:12.947Z,20.87
2019-05-23T22:08:43.694Z,21.13
2019-05-23T22:11:12.870Z,21.29
2019-05-23T22:13:42.052Z,21.10
2019-05-23T22:16:11.169Z,20.01
2019-05-23T22:18:40.209Z,19.13
2019-05-23T22:21:09.493Z,18.50
2019-05-23T22:23:38.520Z,18.92
2019-05-23T22:26:07.645Z,19.33
2019-05-23T22:28:36.780Z,19.75
2019-05-23T22:31:05.894Z,20.17
2019-05-23T22:33:41.441Z,20.27
2019-05-23T22:36:11.240Z,20.30
2019-05-23T22:38:40.282Z,20.31
2019-05-23T22:41:09.306Z,20.54
2019-05-23T22:43:38.360Z,20.60
2019-05-23T22:46:07.549Z,20.58
2019-05-23T22:48:36.747Z,20.50
2019-05-23T22:51:05.830Z,20.62
2019-05-23T22:53:35.257Z,20.68
2019-05-23T22:56:04.326Z,20.72
2019-05-23T22:58:33.442Z,20.99
2019-05-23T23:01:02.651Z,20.99
2019-05-23T23:03:31.822Z,20.62
2019-05-23T23:06:00.933Z,19.57
2019-05-23T23:08:31.181Z,18.62
2019-05-23T23:11:00.262Z,17.92
2019-05-23T23:13:38.831Z,18.47
2019-05-23T23:16:00.581Z,19.34
2019-05-23T23:18:29.676Z,19.78
2019-05-23T23:20:58.844Z,20.20
2019-05-23T23:23:28.024Z,20.54
2019-05-23T23:25:57.119Z,20.48
2019-05-23T23:28:26.388Z,20.65
2019-05-23T23:30:55.519Z,20.78
2019-05-23T23:33:24.618Z,20.82
2019-05-23T23:35:53.736Z,20.87
2019-05-23T23:38:22.764Z,20.26
2019-05-23T23:40:51.891Z,19.27
2019-05-23T23:43:20.898Z,18.32
2019-05-23T23:46:07.451Z,17.68
2019-05-23T23:48:54.216Z,18.52
2019-05-23T23:51:40.892Z,18.97
2019-05-23T23:54:27.713Z,19.33
2019-05-23T23:57:14.338Z,19.83
2019-05-23T23:59:42.657Z,19.92
